createdAt,value
2022-12-18T11:36:51.152Z,12.90
2022-12-18T11:37:38.333Z,14.80
2022-12-18T11:38:06.527Z,14.30
2022-12-18T11:38:35.144Z,13.80
2022-12-18T11:39:03.318Z,13.10
2022-12-18T11:39:31.534Z,13.40
2022-12-18T11:39:59.739Z,12.90
2022-12-18T11:40:27.958Z,13.00
2022-12-18T11:40:56.195Z,12.80
2022-12-18T11:41:24.400Z,12.10
2022-12-18T11:41:52.649Z,12.40
2022-12-18T11:42:20.884Z,12.10
2022-12-18T11:42:49.129Z,11.90
2022-12-18T11:43:17.396Z,11.40
2022-12-18T11:43:45.676Z,10.80
2022-12-18T11:44:13.881Z,12.50
2022-12-18T11:44:42.075Z,11.90
2022-12-18T11:45:10.275Z,11.90
2022-12-18T11:45:38.481Z,12.20
2022-12-18T11:46:06.722Z,12.00
2022-12-18T11:46:34.965Z,11.40
2022-12-18T11:47:03.262Z,10.70
2022-12-18T11:47:31.442Z,11.00
2022-12-18T11:47:59.653Z,11.40
2022-12-18T11:48:27.865Z,10.60
2022-12-18T11:48:56.082Z,10.80
2022-12-18T11:49:24.251Z,11.50
2022-12-18T11:49:52.445Z,10.10
2022-12-18T11:50:20.666Z,10.30
2022-12-18T11:50:48.885Z,9.80
2022-12-18T11:51:17.081Z,10.40
2022-12-18T11:51:45.265Z,10.80
2022-12-18T11:52:13.826Z,10.10
2022-12-18T11:52:41.987Z,9.80
2022-12-18T11:53:10.192Z,9.70
2022-12-18T11:53:38.372Z,9.60
2022-12-18T11:54:06.545Z,9.30
2022-12-18T11:54:34.778Z,10.30
2022-12-18T11:55:02.968Z,9.90
2022-12-18T11:55:31.155Z,10.30
2022-12-18T11:55:59.344Z,10.00
2022-12-18T11:56:27.535Z,10.10
2022-12-18T11:56:55.734Z,9.80
2022-12-18T11:57:25.398Z,10.50
2022-12-18T11:57:52.887Z,10.00
2022-12-18T11:58:22.470Z,9.80
2022-12-18T11:58:50.714Z,9.60
2022-12-18T11:59:18.892Z,9.70
2022-12-18T11:59:47.087Z,9.60
2022-12-18T12:00:15.344Z,10.40
2022-12-18T12:00:43.562Z,9.90
2022-12-18T12:01:11.930Z,9.40
2022-12-18T12:01:43.891Z,10.20
2022-12-18T12:02:07.356Z,10.00
2022-12-18T12:02:35.788Z,10.30
2022-12-18T12:03:04.252Z,10.40
2022-12-18T12:03:32.569Z,10.00
2022-12-18T12:04:00.882Z,9.90
2022-12-18T12:04:29.084Z,10.30
2022-12-18T12:04:57.270Z,10.40
2022-12-18T12:05:25.448Z,9.70
2022-12-18T12:05:53.865Z,10.00
2022-12-18T12:06:22.828Z,9.90
2022-12-18T12:06:51.066Z,10.50
2022-12-18T12:07:19.370Z,10.10
2022-12-18T12:07:47.547Z,9.80
2022-12-18T12:08:15.744Z,10.20
2022-12-18T12:08:43.959Z,10.00
2022-12-18T12:09:12.157Z,9.50
2022-12-18T12:09:40.349Z,9.60
2022-12-18T12:10:08.529Z,9.70
2022-12-18T12:10:36.947Z,9.10
2022-12-18T12:11:06.879Z,9.60
2022-12-18T12:11:35.468Z,9.50
2022-12-18T12:12:03.693Z,9.40
2022-12-18T12:12:31.989Z,9.70
2022-12-18T12:13:00.255Z,8.90
2022-12-18T12:13:28.444Z,9.40
2022-12-18T12:13:56.641Z,9.70
2022-12-18T12:14:24.852Z,9.70
2022-12-18T12:14:53.037Z,9.40
2022-12-18T12:15:22.232Z,10.00
2022-12-18T12:15:50.447Z,9.40
2022-12-18T12:16:18.682Z,9.60
2022-12-18T12:16:46.898Z,9.20
2022-12-18T12:18:12.124Z,8.60
2022-12-18T12:18:40.408Z,9.20
2022-12-18T12:19:08.680Z,9.40
2022-12-18T12:19:36.913Z,9.60
2022-12-18T12:20:05.126Z,9.00
2022-12-18T12:20:36.013Z,9.40
2022-12-18T12:21:04.439Z,9.20
2022-12-18T12:21:32.674Z,9.70
2022-12-18T12:22:00.900Z,9.40
2022-12-18T12:22:29.252Z,9.00
2022-12-18T12:22:57.437Z,9.20
2022-12-18T12:23:27.816Z,9.40
2022-12-18T12:23:56.278Z,8.90
2022-12-18T12:24:24.514Z,9.50
2022-12-18T12:24:52.740Z,9.20
2022-12-18T12:25:20.969Z,8.90
2022-12-18T12:25:49.189Z,9.60
2022-12-18T12:26:17.399Z,8.90
2022-12-18T12:26:45.612Z,9.50
2022-12-18T12:27:15.203Z,9.20
2022-12-18T12:27:43.398Z,8.20
2022-12-18T12:28:10.939Z,8.50
2022-12-18T12:28:39.516Z,8.40
2022-12-18T12:29:10.474Z,8.20
2022-12-18T12:29:38.964Z,8.30
2022-12-18T12:30:08.544Z,7.80
2022-12-18T12:30:32.890Z,8.30
2022-12-18T12:31:01.134Z,8.30
2022-12-18T12:31:28.712Z,7.90
2022-12-18T12:31:57.270Z,7.70
2022-12-18T12:32:25.515Z,7.50
2022-12-18T12:32:53.699Z,7.70
2022-12-18T12:33:21.952Z,8.00
2022-12-18T12:33:50.249Z,8.30
2022-12-18T12:34:18.482Z,8.50
2022-12-18T12:34:46.682Z,8.40
2022-12-18T12:35:14.902Z,7.90
2022-12-18T12:35:43.098Z,8.80
2022-12-18T12:36:11.317Z,8.00
2022-12-18T12:36:39.529Z,7.60
2022-12-18T12:37:08.662Z,8.00
2022-12-18T12:37:36.989Z,7.50
2022-12-18T12:38:05.182Z,7.60
2022-12-18T12:38:34.422Z,8.00
2022-12-18T12:39:02.685Z,7.30
2022-12-18T12:39:30.902Z,8.30
2022-12-18T12:39:59.113Z,7.90
2022-12-18T12:40:51.157Z,7.30
2022-12-18T12:41:02.477Z,7.80
2022-12-18T12:41:24.368Z,8.20
2022-12-18T12:41:52.598Z,7.80
2022-12-18T12:42:21.111Z,7.80
2022-12-18T12:42:49.329Z,7.40
2022-12-18T12:43:17.606Z,8.10
2022-12-18T12:43:50.427Z,7.80
2022-12-18T12:44:13.679Z,7.60
2022-12-18T12:44:42.019Z,7.40
2022-12-18T12:45:10.248Z,7.90
2022-12-18T12:45:39.792Z,7.40
2022-12-18T12:46:08.438Z,7.60
2022-12-18T12:46:36.645Z,8.00
2022-12-18T12:47:04.902Z,7.80
2022-12-18T12:47:33.204Z,7.60
2022-12-18T12:48:01.417Z,7.40
2022-12-18T12:48:29.630Z,7.40
2022-12-18T12:48:57.878Z,8.10
2022-12-18T12:49:26.498Z,9.20
2022-12-18T12:49:54.778Z,7.20
2022-12-18T12:50:22.976Z,8.80
2022-12-18T12:50:51.637Z,11.00
2022-12-18T12:51:19.852Z,11.00
2022-12-18T12:51:48.383Z,11.30
2022-12-18T12:52:17.418Z,10.70
2022-12-18T12:52:46.404Z,10.90
2022-12-18T12:53:14.607Z,10.20
2022-12-18T12:53:43.406Z,10.60
2022-12-18T12:54:13.113Z,9.10
2022-12-18T12:54:41.586Z,8.50
2022-12-18T12:55:14.866Z,8.70
2022-12-18T12:55:37.633Z,8.40
2022-12-18T12:56:05.845Z,8.50
2022-12-18T12:56:34.448Z,8.80
2022-12-18T12:57:02.658Z,8.60
2022-12-18T12:57:30.870Z,8.50
2022-12-18T12:57:59.102Z,8.60
2022-12-18T12:58:27.769Z,8.50
2022-12-18T12:58:57.018Z,8.60
2022-12-18T12:59:25.240Z,8.20
2022-12-18T12:59:53.589Z,8.10
2022-12-18T13:00:22.069Z,8.70
2022-12-18T13:00:51.422Z,8.10
2022-12-18T13:01:23.402Z,8.50
2022-12-18T13:01:46.952Z,8.40
2022-12-18T13:02:15.564Z,8.70
2022-12-18T13:02:44.187Z,8.60
2022-12-18T13:03:12.419Z,9.00
2022-12-18T13:03:40.640Z,8.50
2022-12-18T13:04:12.370Z,8.60
2022-12-18T13:04:35.910Z,8.20
2022-12-18T13:05:04.516Z,8.60
2022-12-18T13:05:33.289Z,8.10
2022-12-18T13:06:01.515Z,8.30
2022-12-18T13:06:30.715Z,8.90
2022-12-18T13:06:59.423Z,8.10
2022-12-18T13:07:27.998Z,8.00
2022-12-18T13:07:55.864Z,8.10
2022-12-18T13:08:25.611Z,8.60
2022-12-18T13:08:54.873Z,8.50
2022-12-18T13:09:20.539Z,8.40
2022-12-18T13:09:49.342Z,8.10
2022-12-18T13:10:19.138Z,8.00
2022-12-18T13:10:47.515Z,8.40
2022-12-18T13:11:18.916Z,7.90
2022-12-18T13:11:42.365Z,8.10
2022-12-18T13:12:10.600Z,8.10
2022-12-18T13:12:38.832Z,8.00
2022-12-18T13:13:07.271Z,8.00
2022-12-18T13:13:37.416Z,8.10
2022-12-18T13:17:45.608Z,9.10
2022-12-18T13:18:14.311Z,9.60
2022-12-18T13:18:43.209Z,10.10
2022-12-18T13:19:12.579Z,10.90
2022-12-18T13:19:40.832Z,10.50
2022-12-18T13:20:09.075Z,11.20
2022-12-18T13:20:37.313Z,11.30
2022-12-18T13:21:05.554Z,11.30
2022-12-18T13:21:33.806Z,11.80
2022-12-18T13:22:02.041Z,11.10
2022-12-18T13:22:30.495Z,11.90
2022-12-18T13:22:59.070Z,12.20
2022-12-18T13:23:27.260Z,12.30
2022-12-18T13:23:55.552Z,11.70
2022-12-18T13:24:24.050Z,12.30
2022-12-18T13:24:52.997Z,13.50
2022-12-18T13:25:22.043Z,12.70
2022-12-18T13:25:50.333Z,11.80
2022-12-18T13:26:23.208Z,13.10
2022-12-18T13:26:47.596Z,11.60
2022-12-18T13:27:15.835Z,12.00
2022-12-18T13:27:43.370Z,12.60
2022-12-18T13:28:11.729Z,11.60
2022-12-18T13:28:40.993Z,11.90
2022-12-18T13:29:09.248Z,12.20
2022-12-18T13:29:37.508Z,12.00
2022-12-18T13:30:06.837Z,12.70
2022-12-18T13:30:35.061Z,11.70
2022-12-18T13:31:03.292Z,11.60
2022-12-18T13:31:31.520Z,11.90
2022-12-18T13:31:59.789Z,11.60
2022-12-18T13:32:28.052Z,12.00
2022-12-18T13:32:56.280Z,11.90
2022-12-18T13:33:24.558Z,11.70
2022-12-18T13:34:26.716Z,12.20
2022-12-18T13:34:50.077Z,11.90
2022-12-18T13:35:18.327Z,12.20
2022-12-18T13:35:48.013Z,12.00
2022-12-18T13:36:15.388Z,12.20
2022-12-18T13:36:43.849Z,11.50
2022-12-18T13:37:12.090Z,12.80
2022-12-18T13:37:40.532Z,13.00
2022-12-18T13:38:14.388Z,12.20
2022-12-18T13:38:37.553Z,11.90
2022-12-18T13:39:05.756Z,12.30
2022-12-18T13:39:36.170Z,12.70
2022-12-18T13:40:01.308Z,12.70
2022-12-18T13:40:29.565Z,12.30
2022-12-18T13:40:57.781Z,12.80
2022-12-18T13:41:27.177Z,12.10
2022-12-18T13:41:55.398Z,13.30
2022-12-18T13:42:24.671Z,13.20
2022-12-18T13:42:53.228Z,13.50
2022-12-18T13:43:21.480Z,13.10
2022-12-18T13:43:49.728Z,12.50
2022-12-18T13:44:18.081Z,13.50
2022-12-18T13:44:46.311Z,12.30
2022-12-18T13:45:14.630Z,13.10
2022-12-18T13:45:43.581Z,12.50
2022-12-18T13:46:12.942Z,12.90
2022-12-18T13:46:41.288Z,12.80
2022-12-18T13:47:09.508Z,12.30
2022-12-18T13:47:39.670Z,12.80
2022-12-18T13:48:07.899Z,12.50
2022-12-18T13:48:36.130Z,12.10
2022-12-18T13:49:04.402Z,12.10
2022-12-18T13:49:33.208Z,12.80
2022-12-18T13:50:01.584Z,12.20
2022-12-18T13:50:36.136Z,11.90
2022-12-18T13:51:00.123Z,12.00
2022-12-18T13:51:29.190Z,12.10
2022-12-18T13:51:57.479Z,12.90
2022-12-18T13:52:26.002Z,12.90
2022-12-18T13:52:54.229Z,13.00
2022-12-18T13:53:22.709Z,12.20
2022-12-18T13:53:51.401Z,12.90
2022-12-18T13:54:19.625Z,14.20
2022-12-18T13:54:48.229Z,13.90
2022-12-18T13:55:17.036Z,13.60
2022-12-18T13:55:45.259Z,13.90
2022-12-18T13:56:14.403Z,13.30
2022-12-18T13:56:42.647Z,13.30
2022-12-18T13:57:11.001Z,13.80
2022-12-18T13:57:39.746Z,14.10
2022-12-18T13:58:07.949Z,14.30
2022-12-18T13:58:36.197Z,13.60
2022-12-18T13:59:04.436Z,13.40
2022-12-18T13:59:32.787Z,13.20
2022-12-18T14:00:01.040Z,14.30
2022-12-18T14:00:29.261Z,13.80
2022-12-18T14:00:57.642Z,13.60
2022-12-18T14:01:26.195Z,14.20
2022-12-18T14:01:54.762Z,13.90
2022-12-18T14:02:23.742Z,13.90
2022-12-18T14:02:52.209Z,13.20
2022-12-18T14:03:22.445Z,13.00
2022-12-18T14:03:50.968Z,14.10
2022-12-18T14:04:19.666Z,13.60
2022-12-18T14:04:47.909Z,13.70
2022-12-18T14:05:16.131Z,13.00
2022-12-18T14:05:44.387Z,13.80
2022-12-18T14:06:13.523Z,12.60
2022-12-18T14:06:42.223Z,12.80
2022-12-18T14:07:12.677Z,12.30
2022-12-18T14:07:45.165Z,12.90
2022-12-18T14:08:10.981Z,12.90
2022-12-18T14:08:40.669Z,13.00
2022-12-18T14:09:10.780Z,13.10
2022-12-18T14:09:39.597Z,13.60
2022-12-18T14:10:49.010Z,13.20
2022-12-18T14:11:05.849Z,13.80
2022-12-18T14:11:35.219Z,14.10
2022-12-18T14:12:04.101Z,14.10
2022-12-18T14:12:32.309Z,14.50
2022-12-18T14:13:03.062Z,14.70
2022-12-18T14:13:31.949Z,14.10
2022-12-18T14:14:00.170Z,14.40
2022-12-18T14:14:33.623Z,14.70
2022-12-18T14:14:56.931Z,14.60
2022-12-18T14:15:25.230Z,15.50
2022-12-18T14:15:53.487Z,14.20
2022-12-18T14:16:21.828Z,14.20
2022-12-18T14:16:50.142Z,14.80
2022-12-18T14:17:18.770Z,14.10
2022-12-18T14:17:47.520Z,14.40
2022-12-18T14:18:15.768Z,14.20
2022-12-18T14:18:44.720Z,14.60
2022-12-18T14:19:15.288Z,14.30
2022-12-18T14:19:44.037Z,13.80
2022-12-18T14:20:12.372Z,14.00
2022-12-18T14:20:40.656Z,13.40
2022-12-18T14:21:08.886Z,14.90
2022-12-18T14:21:37.110Z,14.90
2022-12-18T14:22:05.336Z,14.70
2022-12-18T14:22:33.607Z,15.50
2022-12-18T14:23:01.850Z,14.70
2022-12-18T14:23:30.074Z,14.30
2022-12-18T14:23:58.287Z,14.40
2022-12-18T14:24:26.625Z,14.80
2022-12-18T14:24:54.814Z,14.10
2022-12-18T14:25:24.265Z,14.50
2022-12-18T14:25:54.227Z,14.40
2022-12-18T14:26:23.443Z,14.00
2022-12-18T14:26:51.673Z,15.10
2022-12-18T14:27:20.068Z,15.20
2022-12-18T14:27:48.297Z,15.10
2022-12-18T14:28:16.565Z,15.30
2022-12-18T14:28:44.795Z,14.80
2022-12-18T14:29:13.028Z,14.20
2022-12-18T14:29:41.247Z,14.50
2022-12-18T14:30:09.465Z,14.30
2022-12-18T14:30:37.846Z,14.70
2022-12-18T14:31:06.230Z,15.30
2022-12-18T14:31:34.433Z,14.70
2022-12-18T14:32:02.689Z,14.80
2022-12-18T14:32:30.902Z,14.00
2022-12-18T14:32:59.117Z,14.40
2022-12-18T14:33:27.346Z,14.70
2022-12-18T14:33:55.588Z,15.20
2022-12-18T14:34:23.883Z,14.80
2022-12-18T14:34:52.518Z,14.80
2022-12-18T14:35:20.757Z,14.70
2022-12-18T14:35:48.999Z,14.60
2022-12-18T14:36:17.265Z,15.40
2022-12-18T14:36:47.317Z,14.70
2022-12-18T14:37:15.558Z,13.70
2022-12-18T14:37:44.536Z,14.90
2022-12-18T14:38:12.778Z,14.40
2022-12-18T14:38:41.024Z,14.40
2022-12-18T14:39:09.218Z,14.60
2022-12-18T14:39:37.581Z,14.20
2022-12-18T14:40:11.046Z,14.20
2022-12-18T14:40:34.563Z,14.20
2022-12-18T14:41:02.797Z,14.40
2022-12-18T14:41:31.077Z,15.20
2022-12-18T14:41:59.298Z,14.90
2022-12-18T14:42:27.549Z,15.40
2022-12-18T14:42:55.771Z,15.10
2022-12-18T14:43:24.028Z,14.40
2022-12-18T14:43:52.257Z,16.40
2022-12-18T14:44:20.498Z,15.40
2022-12-18T14:45:12.840Z,15.10
2022-12-18T14:45:17.289Z,15.40
2022-12-18T14:45:45.588Z,16.40
2022-12-18T14:46:14.264Z,16.70
2022-12-18T14:46:42.578Z,17.00
2022-12-18T14:47:10.774Z,16.50
2022-12-18T14:47:39.030Z,17.50
2022-12-18T14:48:07.353Z,17.10
2022-12-18T14:48:35.537Z,17.30
2022-12-18T14:49:03.781Z,17.20
2022-12-18T14:49:32.016Z,17.30
2022-12-18T14:50:00.292Z,17.80
2022-12-18T14:50:28.535Z,19.60
2022-12-18T14:50:56.779Z,19.20
2022-12-18T14:51:25.007Z,18.40
2022-12-18T14:51:53.311Z,17.70
2022-12-18T14:52:21.946Z,18.60
2022-12-18T14:52:50.166Z,17.80
2022-12-18T14:53:18.408Z,17.40
2022-12-18T14:53:52.407Z,18.10
2022-12-18T14:54:15.157Z,17.70
2022-12-18T14:54:43.503Z,16.50
2022-12-18T14:55:11.678Z,16.70
2022-12-18T14:55:39.923Z,17.50
2022-12-18T14:56:08.136Z,19.10
2022-12-18T14:56:36.368Z,15.90
2022-12-18T14:57:05.080Z,16.80
2022-12-18T14:57:33.305Z,16.20
2022-12-18T14:58:01.537Z,14.40
2022-12-18T14:58:29.769Z,14.00
2022-12-18T14:58:57.978Z,13.70
2022-12-18T14:59:26.232Z,14.80
2022-12-18T14:59:54.456Z,14.10
2022-12-18T15:00:22.676Z,13.70
2022-12-18T15:00:50.928Z,13.60
2022-12-18T15:01:19.265Z,13.50
2022-12-18T15:01:47.622Z,13.20
2022-12-18T15:02:16.187Z,14.30
2022-12-18T15:02:44.662Z,13.90
2022-12-18T15:03:12.952Z,15.00
2022-12-18T15:03:41.624Z,15.80
2022-12-18T15:04:10.024Z,15.40
2022-12-18T15:04:39.437Z,15.20
2022-12-18T15:05:13.119Z,14.10
2022-12-18T15:05:35.927Z,15.30
2022-12-18T15:06:04.152Z,14.80
2022-12-18T15:06:32.384Z,15.40
2022-12-18T15:07:00.606Z,14.50
2022-12-18T15:07:28.874Z,14.30
2022-12-18T15:07:56.401Z,15.20
2022-12-18T15:08:24.618Z,14.70
2022-12-18T15:08:54.567Z,15.50
2022-12-18T15:09:23.015Z,14.40
2022-12-18T15:09:51.415Z,16.00
2022-12-18T15:10:19.605Z,16.00
2022-12-18T15:10:49.560Z,15.70
2022-12-18T15:11:19.190Z,15.20
2022-12-18T15:11:47.409Z,14.60
2022-12-18T15:12:15.697Z,15.40
2022-12-18T15:12:43.957Z,15.20
2022-12-18T15:13:12.212Z,14.80
2022-12-18T15:13:40.907Z,15.00
2022-12-18T15:14:09.352Z,16.50
2022-12-18T15:14:37.596Z,15.10
2022-12-18T15:15:05.808Z,14.60
2022-12-18T15:15:34.240Z,14.90
2022-12-18T15:16:02.707Z,14.80
2022-12-18T15:16:30.994Z,14.40
2022-12-18T15:16:59.244Z,14.60
2022-12-18T15:17:27.489Z,14.80
2022-12-18T15:17:55.770Z,14.30
2022-12-18T15:18:24.017Z,14.80
2022-12-18T15:18:53.239Z,14.20
2022-12-18T15:19:21.477Z,14.20
2022-12-18T15:19:51.487Z,14.70
2022-12-18T15:20:19.724Z,14.60
2022-12-18T15:20:48.701Z,14.40
2022-12-18T15:21:16.927Z,14.80
2022-12-18T15:21:45.944Z,14.50
2022-12-18T15:22:14.169Z,14.70
2022-12-18T15:22:42.386Z,15.50
2022-12-18T15:23:10.697Z,15.80
2022-12-18T15:23:39.316Z,15.80
2022-12-18T15:24:07.737Z,16.00
2022-12-18T15:24:35.976Z,15.60
2022-12-18T15:25:04.325Z,16.10
2022-12-18T15:25:32.509Z,15.90
2022-12-18T15:26:00.732Z,15.30
2022-12-18T15:26:28.947Z,15.90
2022-12-18T15:26:57.179Z,15.90
2022-12-18T15:27:25.408Z,15.20
2022-12-18T15:27:53.657Z,15.00
2022-12-18T15:28:21.918Z,14.80
2022-12-18T15:28:50.157Z,14.60
2022-12-18T15:29:18.381Z,14.70
2022-12-18T15:29:47.405Z,14.90
2022-12-18T15:30:15.897Z,15.30
2022-12-18T15:30:44.917Z,14.80
2022-12-18T15:31:13.291Z,15.20
2022-12-18T15:31:42.780Z,14.90
2022-12-18T15:32:11.006Z,16.20
2022-12-18T15:32:39.265Z,16.20
2022-12-18T15:33:07.517Z,16.40
2022-12-18T15:33:35.790Z,15.40
2022-12-18T15:34:04.077Z,15.00
2022-12-18T15:34:32.258Z,14.90
2022-12-18T15:35:00.510Z,13.90
2022-12-18T15:35:28.735Z,14.40
2022-12-18T15:35:56.963Z,14.00
2022-12-18T15:36:26.742Z,14.00
2022-12-18T15:36:55.185Z,14.20
2022-12-18T15:37:23.420Z,14.30
2022-12-18T15:37:51.635Z,13.90
2022-12-18T15:38:19.865Z,13.60
2022-12-18T15:38:48.134Z,13.00
2022-12-18T15:39:16.378Z,13.30
2022-12-18T15:39:44.600Z,13.90
2022-12-18T15:40:12.952Z,14.00
2022-12-18T15:40:41.131Z,13.90
2022-12-18T15:41:13.992Z,14.00
2022-12-18T15:41:37.950Z,13.70
2022-12-18T15:42:06.167Z,13.60
2022-12-18T15:42:34.417Z,14.10
2022-12-18T15:43:02.639Z,14.10
2022-12-18T15:43:30.897Z,14.30
2022-12-18T15:43:59.158Z,14.50
2022-12-18T15:44:27.387Z,15.60
2022-12-18T15:44:55.623Z,15.50
2022-12-18T15:45:23.858Z,14.20
2022-12-18T15:45:52.330Z,14.10
2022-12-18T15:46:20.610Z,13.80
2022-12-18T15:46:48.841Z,13.50
2022-12-18T15:47:17.051Z,14.30
2022-12-18T15:47:45.291Z,14.60
2022-12-18T15:48:13.511Z,14.70
2022-12-18T15:48:41.764Z,13.60
2022-12-18T15:49:10.037Z,14.40
2022-12-18T15:49:38.382Z,14.60
2022-12-18T15:50:06.615Z,14.70
2022-12-18T15:50:35.328Z,15.00
2022-12-18T15:51:03.576Z,15.90
2022-12-18T15:51:31.784Z,16.30
2022-12-18T15:52:00.012Z,16.40
2022-12-18T15:52:28.236Z,16.90
2022-12-18T15:52:56.508Z,16.50
2022-12-18T15:53:24.718Z,16.80
2022-12-18T15:53:52.935Z,16.60
2022-12-18T15:54:21.206Z,17.30
2022-12-18T15:54:49.988Z,17.00
2022-12-18T15:55:18.354Z,16.60
2022-12-18T15:55:46.578Z,16.00
2022-12-18T15:56:14.806Z,15.10
2022-12-18T15:56:43.029Z,15.70
2022-12-18T15:57:11.270Z,15.30
2022-12-18T15:57:41.290Z,14.60
2022-12-18T15:58:09.584Z,14.40
2022-12-18T15:58:37.814Z,14.50
2022-12-18T15:59:06.193Z,14.50
2022-12-18T15:59:34.705Z,15.40
2022-12-18T16:00:02.929Z,15.20
2022-12-18T16:00:31.178Z,16.00
2022-12-18T16:00:59.474Z,16.10
2022-12-18T16:01:27.837Z,16.60
2022-12-18T16:01:56.277Z,15.90
2022-12-18T16:02:24.804Z,14.90
2022-12-18T16:02:53.473Z,16.10
2022-12-18T16:03:21.908Z,15.70
2022-12-18T16:03:51.749Z,16.30
2022-12-18T16:04:20.042Z,15.50
2022-12-18T16:04:48.315Z,16.10
2022-12-18T16:05:16.823Z,15.60
2022-12-18T16:05:45.024Z,15.50
2022-12-18T16:06:13.263Z,15.70
2022-12-18T16:07:12.685Z,15.80
2022-12-18T16:07:18.095Z,15.70
2022-12-18T16:07:38.535Z,15.60
2022-12-18T16:08:06.765Z,15.10
2022-12-18T16:08:35.587Z,15.40
2022-12-18T16:09:03.837Z,15.20
2022-12-18T16:09:32.049Z,15.60
2022-12-18T16:10:02.478Z,15.60
2022-12-18T16:10:31.116Z,16.50
2022-12-18T16:10:59.361Z,15.90
2022-12-18T16:11:27.586Z,15.10
2022-12-18T16:11:55.841Z,15.80
2022-12-18T16:12:24.315Z,16.50
2022-12-18T16:12:52.560Z,15.70
2022-12-18T16:13:20.839Z,15.70
2022-12-18T16:13:49.081Z,15.20
2022-12-18T16:14:18.559Z,15.30
2022-12-18T16:14:46.846Z,14.60
2022-12-18T16:15:18.460Z,15.40
2022-12-18T16:15:43.784Z,15.00
2022-12-18T16:16:12.035Z,15.30
2022-12-18T16:16:40.230Z,14.80
2022-12-18T16:17:08.462Z,14.70
2022-12-18T16:17:36.680Z,14.60
2022-12-18T16:18:04.938Z,14.30
2022-12-18T16:18:33.176Z,14.10
2022-12-18T16:19:01.391Z,13.80
2022-12-18T16:19:30.949Z,14.10
2022-12-18T16:19:59.179Z,14.20
2022-12-18T16:20:27.485Z,13.40
2022-12-18T16:20:55.706Z,13.60
2022-12-18T16:21:23.955Z,13.90
2022-12-18T16:21:54.551Z,13.60
2022-12-18T16:22:23.240Z,13.50
2022-12-18T16:22:51.463Z,13.60
2022-12-18T16:23:19.695Z,14.00
2022-12-18T16:23:48.015Z,14.10
2022-12-18T16:24:16.323Z,13.50
2022-12-18T16:24:44.549Z,13.90
2022-12-18T16:25:12.806Z,13.60
2022-12-18T16:25:41.897Z,13.10
2022-12-18T16:26:10.089Z,13.50
2022-12-18T16:26:38.351Z,13.10
2022-12-18T16:27:06.595Z,12.90
2022-12-18T16:27:34.840Z,14.10
2022-12-18T16:28:03.105Z,13.90
2022-12-18T16:28:31.324Z,13.80
2022-12-18T16:28:59.568Z,14.30
2022-12-18T16:29:27.807Z,14.50
2022-12-18T16:29:56.024Z,13.80
2022-12-18T16:30:24.257Z,13.80
2022-12-18T16:30:52.610Z,13.80
2022-12-18T16:31:20.910Z,14.50
2022-12-18T16:31:49.097Z,13.10
2022-12-18T16:32:17.360Z,13.60
2022-12-18T16:32:45.615Z,13.60
2022-12-18T16:33:14.717Z,14.30
2022-12-18T16:33:44.909Z,14.20
2022-12-18T16:34:14.956Z,14.00
2022-12-18T16:34:44.255Z,14.00
2022-12-18T16:35:12.485Z,15.00
2022-12-18T16:35:40.730Z,13.30
2022-12-18T16:36:09.040Z,13.70
2022-12-18T16:36:37.277Z,14.20
2022-12-18T16:37:06.270Z,14.40
2022-12-18T16:37:34.728Z,13.50
2022-12-18T16:38:02.953Z,13.00
2022-12-18T16:38:31.218Z,13.40
2022-12-18T16:38:59.561Z,14.10
2022-12-18T16:39:27.877Z,13.70
2022-12-18T16:39:56.108Z,14.40
2022-12-18T16:40:24.329Z,13.70
2022-12-18T16:40:52.656Z,14.70
2022-12-18T16:41:20.899Z,14.40
2022-12-18T16:41:49.170Z,14.40
2022-12-18T16:42:17.692Z,14.90
2022-12-18T16:42:45.929Z,14.20
2022-12-18T16:43:14.163Z,14.40
2022-12-18T16:43:42.714Z,14.90
2022-12-18T16:44:11.200Z,15.30
2022-12-18T16:44:39.466Z,14.60
2022-12-18T16:45:07.730Z,15.50
2022-12-18T16:45:35.981Z,15.10
2022-12-18T16:46:04.315Z,15.50
2022-12-18T16:46:32.642Z,14.90
2022-12-18T16:47:00.849Z,15.40
2022-12-18T16:47:29.092Z,15.50
2022-12-18T16:47:57.302Z,14.90
2022-12-18T16:48:25.520Z,14.90
2022-12-18T16:48:53.929Z,15.30
2022-12-18T16:49:22.271Z,14.20
2022-12-18T16:49:50.489Z,14.80
2022-12-18T16:50:18.743Z,14.90
2022-12-18T16:50:46.979Z,14.30
2022-12-18T16:51:15.248Z,14.70
2022-12-18T16:51:43.645Z,14.50
2022-12-18T16:52:11.938Z,14.10
2022-12-18T16:52:40.184Z,14.90
2022-12-18T16:53:08.408Z,14.60
2022-12-18T16:53:36.692Z,14.70
2022-12-18T16:54:09.326Z,14.80
2022-12-18T16:54:33.402Z,14.70
2022-12-18T16:55:01.606Z,15.00
2022-12-18T16:55:31.679Z,14.40
2022-12-18T16:56:00.274Z,15.00
2022-12-18T16:56:28.477Z,15.30
2022-12-18T16:56:57.278Z,15.20
2022-12-18T16:57:25.652Z,15.00
2022-12-18T16:57:53.850Z,15.10
2022-12-18T16:58:22.070Z,16.00
2022-12-18T16:58:50.308Z,15.20
2022-12-18T16:59:18.553Z,15.10
2022-12-18T16:59:46.809Z,14.90
2022-12-18T17:00:15.014Z,14.80
2022-12-18T17:00:43.247Z,14.90
2022-12-18T17:01:11.539Z,14.60
2022-12-18T17:01:39.967Z,15.10
2022-12-18T17:02:08.487Z,15.00
2022-12-18T17:02:37.125Z,14.90
2022-12-18T17:03:05.656Z,15.40
2022-12-18T17:03:33.997Z,15.30
2022-12-18T17:04:02.323Z,15.20
2022-12-18T17:04:30.558Z,15.40
2022-12-18T17:04:58.802Z,15.40
2022-12-18T17:05:27.027Z,15.20
2022-12-18T17:05:55.278Z,14.90
2022-12-18T17:06:23.475Z,15.00
2022-12-18T17:06:51.704Z,15.40
2022-12-18T17:07:19.977Z,15.30
2022-12-18T17:07:48.227Z,15.50
2022-12-18T17:08:16.498Z,15.70
2022-12-18T17:08:44.713Z,14.90
2022-12-18T17:09:12.946Z,15.60
2022-12-18T17:09:41.190Z,15.80
2022-12-18T17:10:09.433Z,16.10
2022-12-18T17:10:38.258Z,15.60
2022-12-18T17:11:06.609Z,15.90
2022-12-18T17:11:34.795Z,15.90
2022-12-18T17:12:04.521Z,15.50
2022-12-18T17:12:32.997Z,16.10
2022-12-18T17:13:01.218Z,15.80
2022-12-18T17:13:29.442Z,15.90
2022-12-18T17:13:57.669Z,16.30
2022-12-18T17:14:26.427Z,15.90
2022-12-18T17:14:55.199Z,15.80
2022-12-18T17:15:23.463Z,15.60
2022-12-18T17:15:52.317Z,15.60
2022-12-18T17:16:20.574Z,15.80
2022-12-18T17:16:57.841Z,16.30
2022-12-18T17:17:22.182Z,15.90
2022-12-18T17:17:45.934Z,15.90
2022-12-18T17:18:15.231Z,15.70
2022-12-18T17:18:43.484Z,16.10
2022-12-18T17:19:16.880Z,16.00
2022-12-18T17:19:40.520Z,15.60
2022-12-18T17:20:08.731Z,15.90
2022-12-18T17:20:36.974Z,16.20
2022-12-18T17:21:05.204Z,16.40
2022-12-18T17:21:33.458Z,15.90
2022-12-18T17:22:01.664Z,15.10
2022-12-18T17:22:29.884Z,16.30
2022-12-18T17:22:58.166Z,15.80
2022-12-18T17:23:28.023Z,15.70
2022-12-18T17:23:56.265Z,15.80
2022-12-18T17:24:24.505Z,15.80
2022-12-18T17:24:52.744Z,15.90
2022-12-18T17:25:20.963Z,15.80
2022-12-18T17:25:49.211Z,16.40
2022-12-18T17:26:17.553Z,16.30
2022-12-18T17:26:45.765Z,16.30
2022-12-18T17:27:15.554Z,15.60
2022-12-18T17:27:43.781Z,15.20
2022-12-18T17:28:12.064Z,15.50
2022-12-18T17:28:40.284Z,15.80
2022-12-18T17:29:08.498Z,15.80
2022-12-18T17:29:37.650Z,15.50
2022-12-18T17:30:02.664Z,15.50
2022-12-18T17:30:30.889Z,16.10
2022-12-18T17:30:59.188Z,16.00
2022-12-18T17:31:27.435Z,14.90
2022-12-18T17:31:55.666Z,15.60
2022-12-18T17:32:25.431Z,15.50
2022-12-18T17:32:53.660Z,15.80
2022-12-18T17:33:21.931Z,16.80
2022-12-18T17:33:50.162Z,17.30
2022-12-18T17:34:18.386Z,17.30
2022-12-18T17:34:46.593Z,17.40
2022-12-18T17:35:14.820Z,17.90
2022-12-18T17:35:43.040Z,17.20
2022-12-18T17:36:11.276Z,18.10
2022-12-18T17:36:39.510Z,17.40
2022-12-18T17:37:07.761Z,18.10
2022-12-18T17:37:35.970Z,18.40
2022-12-18T17:38:04.192Z,17.50
2022-12-18T17:38:32.490Z,17.80
2022-12-18T17:39:00.740Z,18.00
2022-12-18T17:39:28.969Z,18.20
2022-12-18T17:39:57.855Z,18.50
2022-12-18T17:40:27.217Z,17.60
2022-12-18T17:40:57.155Z,17.70
2022-12-18T17:41:25.557Z,17.40
2022-12-18T17:41:53.737Z,17.90
2022-12-18T17:42:21.976Z,16.70
2022-12-18T17:42:50.211Z,16.70
2022-12-18T17:43:18.476Z,16.80
2022-12-18T17:43:46.768Z,16.40
2022-12-18T17:44:14.984Z,16.10
2022-12-18T17:44:43.214Z,16.30
2022-12-18T17:45:11.456Z,16.70
2022-12-18T17:45:39.706Z,16.70
2022-12-18T17:46:07.976Z,15.80
2022-12-18T17:46:33.686Z,16.80
2022-12-18T17:47:03.928Z,16.70
2022-12-18T17:47:33.774Z,16.90
2022-12-18T17:48:02.133Z,16.10
2022-12-18T17:48:30.366Z,16.90
2022-12-18T17:48:58.640Z,17.10
2022-12-18T17:49:26.868Z,17.20
2022-12-18T17:49:55.146Z,17.30
2022-12-18T17:50:24.056Z,16.50
2022-12-18T17:50:52.288Z,17.60